Date,TemperatureHighF,TemperatureAvgF,TemperatureLowF,DewpointHighF,DewpointAvgF,DewpointLowF,HumidityHigh,HumidityAvg,HumidityLow,PressureMaxIn,PressureMinIn,WindSpeedMaxMPH,WindSpeedAvgMPH,GustSpeedMaxMPH,PrecipitationSumIn
2013-1-19,64.8,48.5,29.7,39.4,35.3,26.0,88,63,34,30.41,30.21,2,0,2,0.02
2013-1-20,71.3,56.4,36.2,42.0,38.4,33.3,92,54,32,30.15,30.01,4,1,4,0.00
2013-1-21,68.2,47.8,34.9,47.7,34.0,23.5,90,64,28,30.06,29.95,5,1,5,0.00
2013-1-22,55.3,44.1,36.5,25.1,20.8,17.6,49,40,25,30.23,30.04,6,1,6,0.00
2013-1-23,63.4,48.1,30.6,33.8,27.6,18.2,64,46,29,30.33,30.11,5,0,6,0.00
2013-1-24,70.6,52.4,36.9,43.0,31.3,11.7,78,49,21,30.39,30.05,8,1,8,0.00
2013-1-25,40.5,36.5,30.6,26.4,19.2,11.2,57,49,35,30.39,30.10,0,0,0,0.00
2013-1-26,67.0,47.3,36.5,40.0,32.5,25.9,75,58,34,30.20,30.06,2,0,2,0.00
2013-1-27,63.7,53.8,42.8,34.2,29.9,27.8,71,40,29,30.48,30.21,3,1,3,0.00
2013-1-28,62.5,51.4,42.3,46.7,42.1,33.7,85,71,55,30.41,30.25,2,0,2,0.00
2013-1-29,79.6,67.1,45.5,62.1,56.3,42.4,89,69,54,30.20,30.02,3,0,3,0.00
2013-1-30,81.4,69.3,51.5,64.6,59.6,46.8,89,73,51,29.87,29.49,8,2,8,0.56
2013-1-31,60.8,47.1,39.2,47.2,29.6,22.2,83,53,25,30.13,29.69,5,1,8,0.00
2013-2-1,59.8,44.9,33.5,31.2,20.4,7.9,63,40,17,30.32,30.06,10,1,10,0.00
2013-2-2,69.1,42.5,26.3,35.7,20.9,14.3,75,46,18,30.33,30.06,3,0,3,0.13
2013-2-3,67.1,49.8,39.6,37.7,32.4,25.7,79,54,29,30.06,29.88,9,1,9,0.00
2013-2-4,54.0,43.1,34.6,33.1,29.4,26.1,76,59,40,30.10,29.99,2,0,2,0.00
2013-2-5,70.6,50.9,35.8,48.1,39.9,30.8,86,68,44,30.01,29.91,4,0,4,0.00
2013-2-6,83.5,55.3,41.0,50.3,40.4,33.3,91,64,19,30.12,29.97,3,0,3,0.00
2013-2-7,51.5,47.4,44.3,46.7,43.0,37.0,94,85,74,30.12,29.80,3,0,3,2.89
2013-2-8,70.6,51.3,43.9,53.3,45.4,41.4,92,81,51,30.07,29.83,4,1,4,0.00
2013-2-9,74.5,48.8,32.8,43.5,35.8,30.7,92,67,24,30.26,30.06,4,0,4,0.00
2013-2-10,70.2,61.7,45.5,53.7,47.7,37.1,88,61,44,30.35,30.07,4,1,4,0.17
2013-2-11,66.6,59.4,54.9,63.5,57.1,52.8,95,92,88,30.15,30.00,3,0,3,1.13
2013-2-12,70.9,55.7,48.8,53.5,49.4,42.5,95,82,43,30.08,29.81,2,0,2,0.63
2013-2-13,59.6,51.5,47.2,55.3,48.5,41.3,95,90,75,29.86,29.68,5,0,5,0.05
2013-2-14,54.2,44.8,37.1,41.6,38.5,34.4,91,79,59,30.05,29.84,2,0,4,0.00
2013-2-15,75.6,48.1,33.1,47.7,36.6,31.1,94,70,29,30.07,29.91,4,0,4,0.00
2013-2-16,57.1,42.9,34.6,41.3,25.4,14.9,90,53,32,30.04,29.79,8,2,8,0.01
2013-2-17,56.2,38.3,29.0,20.7,15.5,11.5,59,41,20,30.25,30.03,7,1,7,0.00
2013-2-18,68.6,46.8,26.8,29.3,25.0,18.5,82,46,22,30.36,30.18,3,0,3,0.00
2013-2-19,54.9,44.7,38.3,49.9,37.9,25.8,91,77,53,30.18,29.93,2,0,2,0.25
2013-2-20,70.4,47.2,30.2,32.2,27.0,22.1,79,49,18,30.13,30.00,3,0,3,0.00
2013-2-21,77.9,51.1,33.5,36.7,30.6,24.3,81,50,18,30.15,29.99,4,0,4,0.00
2013-2-22,53.5,44.7,41.0,41.9,39.3,34.4,93,82,52,30.13,30.04,2,0,2,0.77
2013-2-23,46.6,43.8,40.3,45.0,42.0,38.4,95,93,92,30.04,29.79,2,0,2,0.58
2013-2-24,81.5,55.1,43.9,52.4,43.6,36.4,94,70,24,29.96,29.83,4,0,4,0.00
2013-2-25,50.6,46.0,41.2,40.9,36.3,31.4,88,70,52,30.03,29.87,3,0,3,0.00
2013-2-26,54.4,45.7,39.2,51.2,43.3,36.3,95,91,86,29.91,29.53,5,0,5,1.21
2013-2-27,71.8,51.3,40.0,45.4,40.0,36.1,92,68,35,29.84,29.71,5,0,5,0.00
2013-2-28,63.0,48.5,40.7,40.2,33.8,27.0,78,58,37,29.89,29.75,9,1,9,0.00
2013-3-1,64.3,45.5,33.5,33.8,29.5,26.0,76,55,30,29.93,29.81,5,1,5,0.00
2013-3-2,51.8,40.5,35.1,39.8,31.2,26.0,79,70,55,29.91,29.82,5,1,5,0.00
2013-3-3,59.4,40.8,32.4,30.6,24.2,20.4,75,54,28,30.00,29.86,5,1,5,0.00
2013-3-4,67.0,42.2,27.2,34.7,25.1,18.9,76,54,21,30.15,29.99,4,0,4,0.00
2013-3-5,75.4,54.3,39.6,55.8,43.5,32.1,90,68,46,30.04,29.63,9,1,9,0.27
2013-3-6,55.4,43.8,37.1,34.7,26.4,20.2,69,51,36,30.09,29.74,10,2,10,0.00
2013-3-7,71.1,46.2,29.3,36.5,30.8,25.2,87,59,26,30.20,30.08,4,0,4,0.00
2013-3-8,70.6,48.6,33.3,34.0,29.4,23.9,80,52,22,30.26,30.12,4,0,4,0.00
2013-3-9,74.7,51.2,33.5,37.5,32.2,28.8,85,53,22,30.30,30.16,3,0,3,0.00
2013-3-10,76.3,52.5,42.8,48.3,39.6,35.2,79,64,30,30.23,30.12,2,0,3,0.00
2013-3-11,73.6,60.6,48.1,55.3,48.4,40.8,77,65,48,30.13,29.78,2,0,2,0.00
2013-3-12,75.1,61.6,53.6,57.4,48.3,36.4,92,65,34,29.95,29.73,5,1,5,0.30
2013-3-13,69.5,54.2,42.1,35.1,29.4,21.7,68,42,21,30.13,29.96,6,2,6,0.00
2013-3-14,66.2,47.1,32.8,28.6,23.7,21.0,67,42,22,30.26,30.13,3,1,3,0.00
2013-3-15,81.7,56.4,35.3,41.0,33.6,25.1,71,45,24,30.19,29.94,2,0,2,0.00
2013-3-16,87.7,68.0,53.6,46.2,42.0,39.3,65,42,21,29.97,29.81,4,1,4,0.04
2013-3-17,80.8,67.0,57.1,55.1,49.9,43.1,73,55,37,29.97,29.87,3,1,3,0.00
2013-3-18,73.1,59.1,48.8,59.2,52.2,46.1,92,79,62,30.00,29.76,4,0,4,0.84
2013-3-19,81.4,59.6,49.0,53.6,41.6,21.7,94,61,17,29.99,29.79,6,1,6,0.01
2013-3-20,67.7,52.9,41.9,36.3,29.9,18.9,71,45,21,30.08,29.80,4,0,4,0.00
2013-3-21,62.3,48.1,39.6,28.3,20.0,10.2,58,35,17,29.91,29.78,8,1,8,0.00
2013-3-22,52.2,43.2,35.1,28.6,22.3,18.0,61,44,33,30.04,29.90,2,0,2,0.00
2013-3-23,50.9,50.2,49.5,46.6,46.2,45.7,88,86,85,29.88,29.84,1,0,1,0.00
2013-3-24,49.9,47.7,46.3,47.6,44.9,43.8,92,90,87,29.56,29.50,2,0,2,0.01
2013-3-25,42.8,41.2,39.4,33.8,23.7,22.3,70,50,45,29.96,29.66,6,2,6,0.00
2013-3-26,41.8,38.3,35.6,26.0,24.2,22.9,60,57,52,30.17,29.94,4,1,4,0.00
2013-3-27,59.4,41.9,29.2,31.4,26.7,23.3,82,58,28,30.25,30.13,6,0,6,0.00
2013-3-28,72.5,48.9,31.9,32.1,27.8,23.9,78,48,21,30.28,30.14,4,0,4,0.00
2013-3-29,77.8,52.4,33.5,37.6,31.7,24.2,82,52,18,30.30,30.14,2,0,2,0.00
2013-3-30,84.1,63.1,50.0,47.8,43.0,34.5,74,50,28,30.17,29.98,4,0,4,0.00
2013-3-31,83.3,67.1,59.6,59.2,54.0,47.2,86,64,38,29.98,29.80,6,1,6,0.04
2013-4-1,83.5,65.8,56.2,62.5,53.3,37.5,93,69,29,29.93,29.80,5,1,5,0.30
2013-4-2,84.4,60.7,45.7,45.7,42.2,36.5,85,56,23,30.09,29.92,7,0,7,0.00
2013-4-3,68.0,57.7,46.4,44.5,37.6,32.2,76,50,30,30.17,30.02,3,0,3,0.00
2013-4-4,53.6,46.0,42.1,43.5,41.6,38.5,91,85,58,30.14,29.89,2,0,2,0.58
2013-4-5,65.2,49.2,39.4,48.5,42.3,36.7,92,78,52,29.98,29.86,3,0,3,0.01
2013-4-6,81.9,62.1,57.6,42.6,40.3,35.2,54,46,21,30.15,30.08,2,0,2,0.00
2013-4-7,83.3,64.1,45.5,56.6,48.9,40.1,87,60,35,30.18,30.03,5,0,5,0.00
2013-4-8,90.2,69.5,54.4,59.4,53.6,50.3,90,61,30,30.13,30.02,2,0,2,0.00
2013-4-9,92.2,72.9,57.2,65.7,57.2,53.4,90,60,34,30.16,30.05,3,0,3,0.00
2013-4-10,83.2,71.2,62.5,59.3,57.3,55.5,85,63,41,30.07,29.92,2,0,2,0.00
2013-4-11,86.6,71.9,62.6,69.1,64.0,57.7,90,77,54,29.94,29.71,4,0,4,0.00
2013-4-12,88.0,73.9,60.3,69.9,60.3,44.4,93,67,31,29.84,29.65,6,1,6,0.06
2013-4-13,88.6,66.6,50.0,50.0,43.3,36.1,72,47,17,29.96,29.83,3,0,3,0.00
2013-4-14,69.1,58.6,50.0,60.0,52.2,45.2,94,80,61,30.03,29.78,3,0,3,0.14
2013-4-15,81.2,66.8,60.1,65.4,60.4,57.4,92,81,56,30.10,29.88,2,0,2,0.00
2013-4-16,92.2,73.9,59.0,66.1,60.8,56.7,93,67,39,30.20,30.10,1,0,1,0.00
2013-4-17,93.2,73.9,58.7,66.2,60.5,55.8,90,66,38,30.18,30.05,2,0,2,0.00
2013-4-18,69.5,65.1,60.8,62.6,58.2,56.3,86,79,69,30.07,30.03,0,0,0,0.00
2013-4-19,71.6,63.6,52.6,66.0,60.3,49.8,91,89,80,29.92,29.77,1,0,1,0.45
2013-4-20,76.3,56.9,45.4,49.9,43.7,39.3,92,66,30,30.17,29.92,2,0,2,0.00
2013-4-21,78.1,58.5,42.8,47.8,42.2,39.5,90,60,30,30.29,30.18,2,0,2,0.00
2013-4-22,77.8,60.8,51.8,43.1,39.7,36.3,65,48,26,30.26,30.11,2,0,2,0.00
2013-4-23,83.2,61.3,43.4,53.3,45.6,38.2,84,60,33,30.16,30.03,2,0,2,0.00
2013-4-24,86.9,71.1,56.3,59.6,56.0,51.8,86,61,37,30.11,29.99,3,0,3,0.00
2013-4-25,86.6,70.4,57.4,60.7,54.9,44.8,79,61,32,30.19,30.02,2,0,2,0.00
2013-4-26,83.3,65.6,48.2,57.0,48.9,40.4,85,57,36,30.33,30.19,2,0,2,0.00
2013-4-27,74.7,63.2,54.2,60.5,52.8,47.3,87,69,55,30.30,30.15,3,0,3,0.02
2013-4-28,77.0,63.7,57.1,66.8,58.3,50.2,93,83,69,30.15,29.94,4,0,4,1.63
2013-4-29,72.7,65.0,60.8,66.6,61.8,58.5,94,90,76,30.01,29.89,2,0,2,0.48
2013-4-30,80.5,65.8,56.3,68.2,60.3,54.4,94,83,62,30.06,29.90,2,0,2,0.01
2013-5-1,70.2,63.1,58.9,60.5,57.9,55.8,91,83,65,30.16,30.04,2,0,2,0.00
2013-5-2,70.6,65.6,61.6,61.8,59.1,56.3,87,80,69,30.13,30.06,2,0,2,0.00
2013-5-3,67.9,63.0,59.4,60.0,56.9,54.2,87,81,74,30.07,29.95,2,1,2,0.00
2013-5-4,62.6,59.0,54.4,57.4,53.1,47.6,93,81,67,29.95,29.79,2,1,2,0.18
2013-5-7,76.0,66.1,53.6,57.6,52.2,49.0,88,63,44,29.92,29.82,3,0,3,0.00
2013-5-8,84.8,67.1,51.7,59.0,52.8,48.5,90,64,37,29.98,29.88,4,0,4,0.00
2013-5-9,90.2,72.3,56.3,64.8,57.0,52.4,88,62,35,30.04,29.95,3,0,3,0.00
2013-5-10,91.8,72.6,60.7,66.0,59.9,56.7,89,68,33,30.03,29.91,2,0,2,0.00
2013-5-12,83.7,74.9,62.1,56.8,45.9,35.0,48,36,26,30.00,29.87,5,1,5,0.00
2013-5-13,78.5,63.2,48.8,47.1,40.0,34.0,79,46,23,30.13,29.98,5,0,5,0.00
2013-5-14,84.1,64.0,46.1,46.0,41.4,36.6,81,49,21,30.22,30.08,3,0,3,0.00
2013-5-18,74.0,71.8,69.8,66.3,64.7,63.5,81,78,76,30.08,30.07,1,0,1,0.00
2013-5-20,84.2,81.7,74.2,70.9,69.1,66.7,78,66,61,30.04,29.96,2,0,2,0.00
2013-5-21,94.0,75.4,68.0,76.1,67.9,60.7,92,79,47,30.01,29.89,5,0,5,0.00
2013-5-22,89.6,74.3,65.2,72.8,65.9,62.2,93,77,52,29.97,29.82,3,0,3,0.00
2013-5-23,88.4,76.2,67.7,70.6,65.5,59.8,91,71,44,29.91,29.80,4,0,4,0.03
2013-5-24,87.1,77.9,63.7,60.4,54.9,38.6,74,47,24,30.03,29.86,4,1,4,0.00